Time;durP1;ratioP1;P1;durP2;ratioP2;P2;SDS_P1;SDS_P2;PMS_P1;PMS_P2;Temp;Humidity;BMP_temperature;BMP_pressure;BME280_temperature;BME280_humidity;BME280_pressure;Samples;Min_cycle;Max_cycle;Signal;HPM_P1;HPM_P2
2022/05/09 00:00:24;;;;;;;9.13;5.10;;;;;;;14.49;44.19;95541.22;5015377;28;20037;-81
2022/05/09 00:02:50;;;;;;;9.80;4.70;;;;;;;15.48;44.61;95686.09;5015814;28;20123;-81
2022/05/09 00:05:19;;;;;;;9.27;4.93;;;;;;;15.18;45.07;95684.66;5015480;28;20152;-81
2022/05/09 00:07:45;;;;;;;17.73;5.85;;;;;;;14.73;45.06;95615.88;5015292;28;20037;-82
2022/05/09 00:10:13;;;;;;;10.43;5.18;;;;;;;14.63;44.90;95601.59;5015691;28;20055;-81
2022/05/09 00:12:39;;;;;;;14.55;6.10;;;;;;;14.28;45.08;95551.34;5015373;28;20045;-81
2022/05/09 00:15:06;;;;;;;11.43;5.57;;;;;;;14.60;44.56;95590.69;5014986;28;20492;-81
2022/05/09 00:17:31;;;;;;;12.65;5.53;;;;;;;14.14;45.20;95535.25;5015099;28;20045;-81
2022/05/09 00:19:56;;;;;;;15.15;6.28;;;;;;;13.84;45.77;95543.63;5014701;28;20037;-81
2022/05/09 00:22:22;;;;;;;14.10;5.53;;;;;;;15.05;45.47;95688.84;4997123;28;20041;-81
2022/05/09 00:24:48;;;;;;;9.55;5.07;;;;;;;15.06;45.11;95692.31;5015528;28;20716;-81
2022/05/09 00:27:13;;;;;;;10.55;5.32;;;;;;;14.00;45.15;95529.03;4997089;28;20045;-82
2022/05/09 00:29:39;;;;;;;12.13;4.90;;;;;;;13.77;45.65;95530.66;4996642;28;20065;-81
2022/05/09 00:32:05;;;;;;;12.40;5.35;;;;;;;14.18;45.63;95612.84;4997391;28;20287;-81
2022/05/09 00:34:31;;;;;;;21.33;5.55;;;;;;;14.88;45.82;95707.25;4996850;28;20037;-81
2022/05/09 00:36:57;;;;;;;16.05;5.18;;;;;;;13.99;45.80;95570.09;5015016;28;20060;-81
2022/05/09 00:39:23;;;;;;;11.75;5.50;;;;;;;14.63;46.13;95687.03;5015491;28;20040;-81
2022/05/09 00:41:48;;;;;;;11.23;5.20;;;;;;;14.81;45.82;95704.13;4996995;28;20037;-81
2022/05/09 00:44:17;;;;;;;10.65;4.80;;;;;;;14.78;45.35;95704.72;4996915;28;20060;-81
2022/05/09 00:46:46;;;;;;;9.27;4.95;;;;;;;14.27;45.52;95619.91;4997164;28;20044;-81
2022/05/09 00:49:37;;;;;;;11.98;4.55;;;;;;;14.80;45.66;95704.44;5014488;28;20056;-81
2022/05/09 00:52:03;;;;;;;7.10;4.35;;;;;;;14.79;45.81;95714.31;5015019;28;20698;-81
2022/05/09 00:54:40;;;;;;;11.18;4.53;;;;;;;14.73;45.86;95718.13;5014356;28;20055;-81
2022/05/09 00:57:29;;;;;;;10.23;4.32;;;;;;;14.50;45.83;95681.56;5013825;28;20432;-81
2022/05/09 01:00:00;;;;;;;10.98;4.43;;;;;;;13.72;45.83;95557.38;4996306;28;20040;-81
2022/05/09 01:02:26;;;;;;;7.25;4.63;;;;;;;13.79;46.34;95576.47;5014201;28;20393;-81
2022/05/09 01:04:57;;;;;;;11.82;5.18;;;;;;;14.58;46.37;95708.41;4996161;28;20045;-81
2022/05/09 01:07:24;;;;;;;;;;;;;;;14.57;46.32;95706.06;4995992;28;20429;-81
2022/05/09 01:09:49;;;;;;;7.85;4.85;;;;;;;13.86;47.05;95627.59;5013780;28;19929;-81
2022/05/09 01:12:20;;;;;;;10.38;4.97;;;;;;;13.75;46.84;95602.09;5015581;28;20033;-82
2022/05/09 01:14:46;;;;;;;9.48;4.88;;;;;;;13.64;47.06;95611.28;5015352;28;20560;-81
2022/05/09 01:17:13;;;;;;;10.32;4.40;;;;;;;13.97;46.78;95644.25;4996881;28;20518;-81
2022/05/09 01:19:41;;;;;;;10.45;4.47;;;;;;;12.84;46.94;95488.41;5014556;28;20095;-81
2022/05/09 01:22:32;;;;;;;11.18;4.55;;;;;;;13.47;46.66;95593.06;5015023;28;20041;-81
2022/05/09 01:25:02;;;;;;;8.70;4.78;;;;;;;14.11;47.11;95705.75;4996920;28;20045;-81
2022/05/09 01:27:29;;;;;;;8.98;4.05;;;;;;;13.48;47.18;95615.16;5015678;28;20495;-81
2022/05/09 01:30:01;;;;;;;8.93;4.57;;;;;;;14.22;47.00;95716.00;5014740;28;20049;-81
2022/05/09 01:32:32;;;;;;;11.93;4.00;;;;;;;14.17;47.14;95712.59;4997228;28;20091;-81
2022/05/09 01:35:07;;;;;;;11.23;4.13;;;;;;;14.12;47.38;95713.44;5015738;28;20370;-82
2022/05/09 01:37:34;;;;;;;13.48;4.55;;;;;;;13.57;47.80;95642.81;5015177;28;20543;-81
2022/05/09 01:39:59;;;;;;;11.88;4.70;;;;;;;13.94;47.38;95686.69;4997049;28;20045;-81
2022/05/09 01:42:25;;;;;;;12.02;4.57;;;;;;;13.66;47.57;95664.28;5014731;28;20064;-81
2022/05/09 01:44:51;;;;;;;10.13;4.43;;;;;;;13.65;47.55;95652.88;4996610;28;20037;-81
2022/05/09 01:50:00;;;;;;;11.88;4.93;;;;;;;13.38;47.97;95631.22;5013642;28;20052;-81
2022/05/09 01:52:26;;;;;;;11.02;4.22;;;;;;;13.70;49.33;95710.66;5013994;28;20037;-81
2022/05/09 01:54:52;;;;;;;8.65;4.28;;;;;;;12.88;48.38;95556.00;4996468;28;20150;-82
2022/05/09 01:57:18;;;;;;;11.23;4.35;;;;;;;12.33;48.99;95494.13;4996419;28;20065;-81
2022/05/09 01:59:44;;;;;;;12.18;5.13;;;;;;;12.88;49.27;95571.97;5014109;28;20136;-82
2022/05/09 02:02:15;;;;;;;13.15;4.60;;;;;;;13.59;48.95;95707.25;4996235;28;20043;-81
2022/05/09 02:04:40;;;;;;;9.57;4.67;;;;;;;13.61;48.98;95713.13;5014411;28;20426;-82
2022/05/09 02:07:13;;;;;;;14.68;4.80;;;;;;;13.38;49.85;95711.16;5013857;28;20574;-82
2022/05/09 02:09:44;;;;;;;8.27;4.80;;;;;;;13.42;49.62;95718.34;5013721;28;20099;-82
2022/05/09 02:12:10;;;;;;;13.20;5.20;;;;;;;13.48;49.82;95711.09;4995508;28;20612;-82
2022/05/09 02:14:37;;;;;;;11.63;5.20;;;;;;;13.25;50.22;95699.28;5015211;28;20637;-81
2022/05/09 02:17:04;;;;;;;16.15;5.43;;;;;;;12.49;50.05;95571.97;5000083;28;20518;-81
2022/05/09 02:19:29;;;;;;;11.95;5.63;;;;;;;12.61;50.85;95633.59;5018906;28;20960;-81
2022/05/09 02:21:55;;;;;;;12.55;5.28;;;;;;;12.51;51.77;95657.59;5018795;28;20114;-81
2022/05/09 02:24:22;;;;;;;10.15;4.90;;;;;;;12.45;51.58;95616.13;5023252;28;20071;-81
2022/05/09 02:26:48;;;;;;;15.57;5.35;;;;;;;12.15;51.92;95582.50;5028714;28;20045;-81
2022/05/09 02:29:13;;;;;;;11.60;5.57;;;;;;;12.36;51.77;95607.94;5004803;28;20065;-81
2022/05/09 02:31:39;;;;;;;9.05;4.93;;;;;;;12.93;51.76;95696.25;5000331;28;20053;-82
2022/05/09 02:34:04;;;;;;;15.95;5.82;;;;;;;12.55;51.27;95641.91;5018473;28;20120;-81
2022/05/09 02:36:29;;;;;;;11.60;4.95;;;;;;;12.45;51.63;95641.94;5017986;28;20071;-81
2022/05/09 02:38:55;;;;;;;11.10;6.15;;;;;;;12.70;51.90;95660.44;4999378;28;20551;-81
2022/05/09 02:41:22;;;;;;;16.70;6.97;;;;;;;12.04;52.70;95593.47;4999083;28;20446;-81
2022/05/09 02:43:47;;;;;;;15.18;5.78;;;;;;;12.24;52.06;95614.66;5017163;28;20037;-82
2022/05/09 02:46:13;;;;;;;12.40;5.93;;;;;;;12.65;52.12;95673.78;5017490;28;20048;-81
2022/05/09 02:48:39;;;;;;;10.57;5.80;;;;;;;12.84;52.34;95717.31;5016752;28;20429;-82
2022/05/09 02:51:06;;;;;;;16.73;6.18;;;;;;;12.33;53.05;95647.59;5017198;28;20044;-82
2022/05/09 02:53:32;;;;;;;20.75;6.60;;;;;;;12.41;52.40;95659.53;5017315;28;20044;-81
2022/05/09 02:55:57;;;;;;;16.23;7.00;;;;;;;12.75;51.93;95710.97;5016899;28;20091;-81
2022/05/09 02:58:23;;;;;;;20.88;6.40;;;;;;;13.00;52.09;95736.66;4998245;28;20041;-82
2022/05/09 03:00:48;;;;;;;20.70;6.95;;;;;;;12.32;51.89;95643.34;4998600;28;20083;-82
2022/05/09 03:05:58;;;;;;;14.95;6.63;;;;;;;12.64;52.57;95685.50;5017655;28;20071;-81
2022/05/09 03:08:24;;;;;;;20.77;7.00;;;;;;;12.33;52.56;95659.03;5016410;28;20041;-81
2022/05/09 03:10:50;;;;;;;19.95;8.30;;;;;;;12.74;52.80;95738.66;4998723;28;20162;-81
2022/05/09 03:13:16;;;;;;;19.42;7.07;;;;;;;12.26;53.15;95655.88;5016840;28;20107;-81
2022/05/09 03:15:45;;;;;;;12.95;6.63;;;;;;;11.98;53.31;95625.38;4998705;28;20544;-82
2022/05/09 03:18:12;;;;;;;18.33;6.97;;;;;;;11.71;54.09;95611.59;4998702;28;20037;-81
2022/05/09 03:20:38;;;;;;;15.68;6.68;;;;;;;12.32;54.31;95726.56;5017530;28;20556;-81
2022/05/09 03:23:05;;;;;;;17.27;6.97;;;;;;;12.11;54.45;95703.78;5016893;28;20416;-81
2022/05/09 03:25:32;;;;;;;16.13;7.68;;;;;;;12.01;56.01;95764.94;5016910;28;20045;-81
2022/05/09 03:27:58;;;;;;;23.25;6.38;;;;;;;11.26;55.94;95649.66;4998173;28;20041;-82
2022/05/09 03:30:24;;;;;;;15.10;6.55;;;;;;;12.21;55.60;95767.53;5015971;28;20073;-81
2022/05/09 03:32:50;;;;;;;14.77;6.53;;;;;;;11.68;55.68;95678.56;5017215;28;20082;-82
2022/05/09 03:35:16;;;;;;;11.50;6.45;;;;;;;12.25;55.41;95765.16;5017597;28;20049;-81
2022/05/09 03:37:42;;;;;;;21.40;7.78;;;;;;;11.82;55.01;95695.59;5016605;28;20048;-81
2022/05/09 03:40:09;;;;;;;17.55;8.73;;;;;;;10.75;55.43;95516.97;4998446;28;20033;-81
2022/05/09 03:42:34;;;;;;;23.95;9.00;;;;;;;12.42;55.00;95770.19;5016646;28;20041;-82
2022/05/09 03:45:00;;;;;;;27.45;9.40;;;;;;;11.96;54.97;95712.59;5016899;28;20045;-81
2022/05/09 03:47:25;;;;;;;28.13;9.20;;;;;;;12.07;55.59;95736.47;5019817;28;20547;-81
2022/05/09 03:49:52;;;;;;;31.40;10.82;;;;;;;11.05;56.54;95611.69;4998224;28;20047;-81
2022/05/09 03:52:17;;;;;;;28.83;10.23;;;;;;;11.50;55.71;95645.38;5016469;28;20497;-81
2022/05/09 03:54:42;;;;;;;25.67;10.25;;;;;;;11.61;55.13;95662.91;5016750;28;20523;-82
2022/05/09 03:57:08;;;;;;;26.95;9.60;;;;;;;11.19;55.21;95598.69;5016407;28;20044;-81
2022/05/09 03:59:33;;;;;;;39.08;10.30;;;;;;;12.40;55.15;95761.66;5015954;28;20160;-81
2022/05/09 04:01:59;;;;;;;25.02;9.48;;;;;;;12.49;55.17;95774.16;5015652;28;20030;-82
2022/05/09 04:04:24;;;;;;;29.50;10.88;;;;;;;12.32;55.09;95763.00;4997396;28;20033;-81
2022/05/09 04:06:51;;;;;;;26.33;9.73;;;;;;;12.55;54.48;95775.72;4997707;28;20144;-81
2022/05/09 04:09:20;;;;;;;39.60;10.52;;;;;;;11.89;54.38;95669.53;4999198;28;20483;-81
2022/05/09 04:11:47;;;;;;;32.53;9.43;;;;;;;11.84;54.75;95642.97;4999259;28;20036;-81
2022/05/09 04:14:13;;;;;;;23.60;8.25;;;;;;;12.26;53.14;95717.03;4995555;28;20087;-81
2022/05/09 04:16:51;;;;;;;18.85;7.47;;;;;;;11.90;52.91;95649.84;5019854;28;20492;-81
2022/05/09 04:19:20;;;;;;;26.42;8.63;;;;;;;12.41;52.81;95713.53;5013144;28;20677;-82
2022/05/09 04:21:46;;;;;;;16.83;7.65;;;;;;;12.62;52.54;95749.63;4990049;28;20033;-84
2022/05/09 04:24:13;;;;;;;14.75;7.43;;;;;;;12.54;52.05;95722.78;5010846;28;20533;-83
2022/05/09 04:26:40;;;;;;;18.05;6.82;;;;;;;12.79;51.75;95741.31;5017996;28;20710;-83
2022/05/09 04:29:05;;;;;;;16.65;7.25;;;;;;;11.98;51.89;95632.53;4995268;28;20319;-83
2022/05/09 04:31:31;;;;;;;21.65;7.82;;;;;;;13.14;52.09;95786.41;5014062;28;20349;-83
2022/05/09 04:33:58;;;;;;;19.77;7.38;;;;;;;11.70;52.75;95585.31;5011886;28;20476;-83
2022/05/09 04:36:26;;;;;;;19.25;7.60;;;;;;;12.95;52.62;95781.97;4995568;28;20306;-84
2022/05/09 04:38:53;;;;;;;22.02;7.85;;;;;;;12.48;52.54;95707.91;4986523;28;20107;-83
2022/05/09 04:41:19;;;;;;;10.55;6.82;;;;;;;11.74;52.08;95589.03;4989948;28;20037;-82
2022/05/09 04:43:46;;;;;;;16.38;6.82;;;;;;;11.83;52.25;95606.00;5006951;28;20136;-82
2022/05/09 04:46:12;;;;;;;25.42;7.88;;;;;;;11.70;51.52;95554.22;5009199;28;20099;-82
2022/05/09 04:48:40;;;;;;;14.07;7.47;;;;;;;12.90;51.78;95796.06;4983498;28;20717;-83
2022/05/09 04:51:06;;;;;;;22.52;8.15;;;;;;;12.59;51.70;95731.53;5007983;28;20041;-83
2022/05/09 04:53:32;;;;;;;21.90;6.78;;;;;;;12.90;52.12;95797.94;5010158;28;20033;-82
2022/05/09 04:55:58;;;;;;;17.67;8.02;;;;;;;13.00;51.82;95793.38;4989255;28;20037;-83
2022/05/09 04:58:25;;;;;;;21.42;8.63;;;;;;;12.32;51.73;95686.69;5012356;28;20075;-83
2022/05/09 05:00:51;;;;;;;16.95;7.60;;;;;;;11.99;51.16;95616.34;4990208;28;20099;-83
2022/05/09 05:03:16;;;;;;;20.45;8.50;;;;;;;12.13;51.93;95655.66;5005206;28;20033;-83
2022/05/09 05:05:43;;;;;;;15.55;7.93;;;;;;;11.14;51.13;95506.56;4987636;28;20041;-82
2022/05/09 05:08:08;;;;;;;32.60;9.02;;;;;;;13.16;51.31;95794.13;5011941;28;20120;-83
2022/05/09 05:10:34;;;;;;;28.38;8.45;;;;;;;12.68;51.07;95734.41;5001758;28;20462;-83
2022/05/09 05:13:03;;;;;;;29.02;8.40;;;;;;;12.93;50.44;95747.63;4989558;28;20045;-83
2022/05/09 05:15:30;;;;;;;19.00;7.70;;;;;;;13.30;50.45;95789.00;4998353;28;20445;-82
2022/05/09 05:17:56;;;;;;;25.67;8.95;;;;;;;13.10;50.05;95744.63;5002478;28;20048;-83
2022/05/09 05:20:22;;;;;;;26.85;8.70;;;;;;;13.47;50.23;95795.56;5004565;28;20037;-83
2022/05/09 05:22:49;;;;;;;30.70;8.68;;;;;;;12.89;49.75;95698.66;5004274;28;20802;-83
2022/05/09 05:25:18;;;;;;;23.60;8.52;;;;;;;13.56;49.85;95795.78;5007270;28;20586;-83
2022/05/09 05:27:45;;;;;;;20.52;8.70;;;;;;;13.66;49.59;95794.88;5000436;28;20041;-83
2022/05/09 05:30:11;;;;;;;19.80;8.38;;;;;;;12.80;49.99;95687.00;5000367;28;20045;-82
2022/05/09 05:32:39;;;;;;;22.65;7.65;;;;;;;13.12;49.69;95723.84;4987006;28;20064;-82
2022/05/09 05:35:07;;;;;;;17.75;8.07;;;;;;;13.75;49.26;95795.88;4986124;28;20040;-82
2022/05/09 05:37:34;;;;;;;23.67;7.95;;;;;;;13.38;49.27;95719.16;5004915;28;20099;-82
2022/05/09 05:40:00;;;;;;;17.60;8.43;;;;;;;13.55;49.79;95772.84;4988697;28;20112;-82
2022/05/09 05:42:27;;;;;;;21.58;7.95;;;;;;;13.23;49.58;95712.06;4986376;28;20040;-82
2022/05/09 05:44:53;;;;;;;18.92;8.85;;;;;;;13.77;49.42;95794.53;4998234;28;20515;-82
2022/05/09 05:47:20;;;;;;;26.65;8.50;;;;;;;13.74;49.07;95770.31;4997833;28;20453;-83
2022/05/09 05:49:46;;;;;;;20.33;8.23;;;;;;;13.77;49.33;95799.09;5010160;28;20107;-82
2022/05/09 05:52:14;;;;;;;30.13;9.20;;;;;;;13.55;49.57;95754.19;4985179;28;20615;-83
2022/05/09 05:54:43;;;;;;;23.75;8.15;;;;;;;13.89;48.88;95772.84;4986872;28;20044;-83
2022/05/09 05:57:30;;;;;;;21.85;8.27;;;;;;;13.74;48.66;95731.13;5004331;28;20033;-83
2022/05/09 06:00:05;;;;;;;21.45;9.13;;;;;;;13.65;49.28;95724.81;4986796;28;20045;-83
2022/05/09 06:02:31;;;;;;;24.42;9.45;;;;;;;13.74;49.37;95744.44;5005377;28;20037;-82
2022/05/09 06:04:57;;;;;;;27.27;8.93;;;;;;;13.41;49.51;95722.06;4991205;28;20044;-82
2022/05/09 06:07:23;;;;;;;22.38;8.63;;;;;;;13.46;49.42;95699.91;5008186;28;20969;-82
2022/05/09 06:09:50;;;;;;;17.80;9.00;;;;;;;14.06;49.65;95794.56;5012052;28;20047;-82
2022/05/09 06:12:19;;;;;;;16.42;9.13;;;;;;;13.53;49.35;95709.19;5003914;28;20041;-81
2022/05/09 06:15:24;;;;;;;20.55;9.93;;;;;;;13.82;49.34;95748.38;5014584;28;20869;-81
2022/05/09 06:17:32;;;;;;;18.52;9.02;;;;;;;14.37;49.16;95813.78;5010119;28;20054;-80
2022/05/09 06:19:58;;;;;;;21.80;8.48;;;;;;;14.43;48.69;95801.19;5009432;28;20040;-82
2022/05/09 06:22:23;;;;;;;18.27;7.40;;;;;;;14.03;48.67;95733.81;5004890;28;20042;-83
2022/05/09 06:24:48;;;;;;;21.77;7.25;;;;;;;13.94;48.57;95727.50;5011896;28;20037;-84
2022/05/09 06:27:14;;;;;;;21.00;8.07;;;;;;;13.96;48.27;95689.88;4989294;28;20040;-83
2022/05/09 06:29:39;;;;;;;15.98;8.13;;;;;;;14.52;49.26;95792.31;5001632;28;20100;-83
2022/05/09 06:32:05;;;;;;;24.98;8.50;;;;;;;13.83;48.62;95710.78;4989472;28;20033;-83
2022/05/09 06:34:31;;;;;;;15.00;7.25;;;;;;;13.93;48.87;95679.78;5006595;28;20037;-83
2022/05/09 06:36:56;;;;;;;25.52;9.30;;;;;;;14.14;48.18;95707.81;4989923;28;20041;-83
2022/05/09 06:39:21;;;;;;;22.50;8.30;;;;;;;14.92;48.01;95796.41;5006732;28;20090;-82
2022/05/09 06:41:47;;;;;;;15.05;7.88;;;;;;;14.93;48.21;95791.84;5009200;28;20071;-82
2022/05/09 06:44:13;;;;;;;23.50;7.72;;;;;;;14.38;48.25;95671.31;5014968;28;20065;-84
2022/05/09 06:46:38;;;;;;;21.88;8.88;;;;;;;15.11;48.26;95784.94;5010071;28;20049;-84
2022/05/09 06:49:04;;;;;;;16.48;7.63;;;;;;;15.12;47.43;95768.63;5004991;28;20040;-82
2022/05/09 06:51:29;;;;;;;24.10;8.38;;;;;;;14.32;47.44;95644.94;4991216;28;20044;-83
2022/05/09 06:53:55;;;;;;;16.08;8.05;;;;;;;14.72;47.84;95705.88;5008836;28;20938;-82
2022/05/09 06:56:21;;;;;;;26.13;8.20;;;;;;;14.67;47.52;95704.03;5012054;28;20049;-83
2022/05/09 06:58:47;;;;;;;15.25;8.60;;;;;;;14.23;47.91;95676.78;4995154;28;20040;-83
2022/05/09 07:01:18;;;;;;;21.88;9.85;;;;;;;14.81;47.29;95752.19;4992573;28;20449;-84
2022/05/09 07:03:44;;;;;;;23.05;8.43;;;;;;;15.15;47.44;95789.44;5008966;28;20503;-82
2022/05/09 07:06:09;;;;;;;31.95;9.00;;;;;;;15.44;46.84;95791.97;5005897;28;20034;-82
2022/05/09 07:08:35;;;;;;;22.85;8.85;;;;;;;14.02;47.21;95534.88;5018115;28;20570;-83
2022/05/09 07:11:03;;;;;;;25.13;9.68;;;;;;;15.40;46.72;95769.59;4993396;28;20043;-83
2022/05/09 07:13:28;;;;;;;23.55;9.75;;;;;;;15.29;46.69;95738.75;4992499;28;20128;-81
2022/05/09 07:15:57;;;;;;;31.38;10.10;;;;;;;15.62;46.45;95785.09;5010297;28;20037;-82
2022/05/09 07:18:25;;;;;;;27.45;9.73;;;;;;;15.63;46.51;95762.63;4991696;28;20041;-81
2022/05/09 07:20:51;;;;;;;23.83;10.07;;;;;;;15.70;46.40;95747.00;4986191;28;20495;-82
2022/05/09 07:23:17;;;;;;;24.70;9.90;;;;;;;15.98;46.57;95782.63;5004982;28;20037;-83
2022/05/09 07:25:42;;;;;;;21.85;8.98;;;;;;;15.96;47.11;95782.13;5019294;28;20542;-82
2022/05/09 07:28:09;;;;;;;20.40;8.75;;;;;;;15.77;46.26;95731.38;4986013;28;20350;-81
2022/05/09 07:30:35;;;;;;;28.17;9.73;;;;;;;15.11;45.95;95597.94;5002960;28;20516;-82
2022/05/09 07:33:00;;;;;;;29.42;9.55;;;;;;;15.77;46.08;95718.78;5000361;28;20033;-82
2022/05/09 07:35:26;;;;;;;18.77;8.75;;;;;;;15.57;45.23;95667.50;4990820;28;20084;-82
2022/05/09 07:37:51;;;;;;;28.77;9.82;;;;;;;15.71;44.74;95689.75;4974011;28;20140;-82
2022/05/09 07:40:18;;;;;;;29.02;8.68;;;;;;;16.40;44.77;95777.06;4977991;28;20048;-81
2022/05/09 07:42:49;;;;;;;21.33;8.23;;;;;;;16.12;44.52;95714.69;5000833;28;20053;-82
2022/05/09 07:45:20;;;;;;;19.40;7.63;;;;;;;16.26;45.29;95714.72;4971139;28;20041;-83
2022/05/09 07:47:46;;;;;;;35.30;8.73;;;;;;;16.71;44.86;95771.19;4981606;28;20229;-83
2022/05/09 07:50:13;;;;;;;27.60;8.68;;;;;;;16.86;44.79;95773.59;4991642;28;20095;-83
2022/05/09 07:52:41;;;;;;;17.73;6.43;;;;;;;16.33;43.91;95668.81;4976885;28;20132;-83
2022/05/09 07:55:07;;;;;;;19.00;5.70;;;;;;;16.48;43.53;95693.41;4997943;28;20124;-83
2022/05/09 07:57:32;;;;;;;16.88;4.80;;;;;;;15.60;43.47;95533.25;4988735;28;20484;-84
2022/05/09 07:59:59;;;;;;;17.50;4.35;;;;;;;16.10;42.30;95628.56;4985748;28;20034;-83
2022/05/09 08:02:24;;;;;;;16.42;5.80;;;;;;;16.09;42.55;95599.47;4998895;28;20037;-83
2022/05/09 08:04:53;;;;;;;17.10;5.25;;;;;;;16.31;42.63;95644.25;5000074;28;20135;-83
2022/05/09 08:07:18;;;;;;;23.05;4.97;;;;;;;15.98;42.65;95577.47;4989383;28;20386;-83
2022/05/09 08:09:44;;;;;;;20.23;4.78;;;;;;;16.68;41.67;95694.13;4983399;28;20041;-82
2022/05/09 08:12:10;;;;;;;9.55;3.17;;;;;;;16.35;41.81;95654.06;4979727;28;20045;-83
2022/05/09 08:14:36;;;;;;;14.00;3.75;;;;;;;16.89;40.81;95722.88;4986581;28;20301;-83
2022/05/09 08:17:02;;;;;;;15.13;4.30;;;;;;;17.16;41.26;95759.56;5005484;28;20664;-84
2022/05/09 08:19:29;;;;;;;9.77;3.78;;;;;;;16.86;41.00;95679.84;5000675;28;20052;-84
2022/05/09 08:21:55;;;;;;;9.77;3.78;;;;;;;17.51;40.87;95773.28;4991878;28;20580;-84
2022/05/09 08:24:22;;;;;;;19.30;4.20;;;;;;;17.09;40.83;95726.22;4987420;28;20152;-84
2022/05/09 08:26:48;;;;;;;25.02;5.55;;;;;;;17.13;41.16;95698.53;4982023;28;20412;-84
2022/05/09 08:29:13;;;;;;;8.20;3.25;;;;;;;17.32;39.87;95725.16;5001132;28;20056;-84
2022/05/09 08:31:39;;;;;;;10.30;3.35;;;;;;;17.08;39.58;95695.16;5004960;28;20061;-85
2022/05/09 08:34:04;;;;;;;9.25;3.55;;;;;;;17.14;39.36;95684.03;4984508;28;20085;-85
2022/05/09 08:39:19;;;;;;;12.48;3.22;;;;;;;17.77;36.96;95777.00;5003777;28;20493;-83
2022/05/09 08:42:11;;;;;;;7.68;2.83;;;;;;;17.55;37.20;95725.97;5006225;28;20048;-84
2022/05/09 08:44:42;;;;;;;12.75;3.17;;;;;;;17.98;39.18;95774.63;5003290;28;20033;-82
2022/05/09 08:47:41;;;;;;;8.13;3.30;;;;;;;17.34;38.42;95661.31;4987218;28;20041;-83
2022/05/09 08:50:13;;;;;;;9.45;2.70;;;;;;;18.08;38.17;95774.34;4996723;28;20176;-84
2022/05/09 08:52:44;;;;;;;7.53;2.70;;;;;;;17.80;38.12;95738.03;5016699;28;20037;-84
2022/05/09 08:55:12;;;;;;;7.13;2.88;;;;;;;17.36;38.17;95661.81;5009254;28;20037;-83
2022/05/09 08:57:45;;;;;;;7.72;2.58;;;;;;;17.82;37.42;95714.38;4981341;28;20127;-83
2022/05/09 09:00:17;;;;;;;10.40;2.45;;;;;;;18.23;37.21;95770.53;4983161;28;20514;-83
2022/05/09 09:03:01;;;;;;;9.80;3.50;;;;;;;17.33;39.50;95631.03;4985507;28;20128;-82
2022/05/09 09:05:35;;;;;;;10.93;3.35;;;;;;;18.30;39.24;95763.63;4985218;28;20033;-83
2022/05/09 09:08:24;;;;;;;6.65;3.13;;;;;;;18.44;38.49;95768.91;5002908;28;20193;-83
2022/05/09 09:11:03;;;;;;;13.65;3.28;;;;;;;17.96;36.97;95686.38;4990679;28;20040;-84
2022/05/09 09:13:43;;;;;;;12.07;3.03;;;;;;;18.44;34.64;95761.63;5006422;28;20672;-83
2022/05/09 09:16:53;;;;;;;8.43;3.25;;;;;;;18.49;34.81;95758.81;4980846;28;20041;-84
2022/05/09 09:19:40;;;;;;;9.45;3.30;;;;;;;18.50;34.87;95759.59;4940910;28;20053;-84
2022/05/09 09:22:42;;;;;;;6.72;2.83;;;;;;;18.42;34.11;95720.88;5007009;28;20038;-89
2022/05/09 09:25:23;;;;;;;5.82;3.13;;;;;;;18.69;32.98;95757.50;4995005;28;20026;-89
2022/05/09 09:28:13;;;;;;;9.75;3.03;;;;;;;18.76;34.90;95757.06;4995249;28;20178;-87
2022/05/09 09:30:40;;;;;;;6.32;2.80;;;;;;;18.89;34.18;95754.25;4971026;28;21271;-89
2022/05/09 09:33:09;;;;;;;7.07;2.83;;;;;;;16.67;33.39;95457.69;4996293;28;20033;-88
2022/05/09 09:36:14;;;;;;;10.85;2.50;;;;;;;19.08;33.97;95748.59;4976950;28;20033;-86
2022/05/09 09:38:53;;;;;;;7.57;2.28;;;;;;;19.07;31.49;95733.56;4985184;28;20196;-87
2022/05/09 09:41:25;;;;;;;11.40;1.70;;;;;;;19.24;31.03;95748.94;4979386;28;20057;-87
2022/05/09 09:43:59;;;;;;;6.15;2.30;;;;;;;17.14;29.82;95397.28;4972405;28;20149;-87
2022/05/09 09:46:25;;;;;;;11.43;2.05;;;;;;;16.59;31.07;95253.00;4979424;28;20038;-88
2022/05/09 09:49:09;;;;;;;7.90;2.00;;;;;;;20.93;27.96;95745.84;4981763;28;20519;-87
2022/05/09 09:51:47;;;;;;;23.83;2.75;;;;;;;21.94;28.04;95729.28;4975052;28;20625;-88
2022/05/09 09:54:19;;;;;;;10.55;2.50;;;;;;;19.71;26.70;95276.38;4960787;28;20500;-83
2022/05/09 09:56:46;;;;;;;11.55;2.20;;;;;;;19.71;26.70;95276.38;4972998;28;20495;-83
2022/05/09 09:59:31;;;;;;;9.32;2.58;;;;;;;19.71;26.70;95276.38;4979345;28;20037;-84
2022/05/09 10:02:01;;;;;;;11.32;2.30;;;;;;;-143.51;100.00;62207.84;4971239;28;20365;-83
2022/05/09 10:04:28;;;;;;;11.70;2.85;;;;;;;;;;4972702;28;20388;-83
2022/05/09 10:07:16;;;;;;;9.13;1.92;;;;;;;25.83;100.00;95496.19;4968277;28;20042;-83
2022/05/09 10:10:07;;;;;;;19.77;2.50;;;;;;;25.83;nan;95496.19;4989568;28;20037;-83
2022/05/09 10:12:34;;;;;;;10.90;3.05;;;;;;;27.01;nan;95580.38;4980080;28;20077;-83
2022/05/09 10:15:19;;;;;;;6.40;2.00;;;;;;;27.68;nan;95573.06;4986854;28;20045;-84
2022/05/09 10:17:45;;;;;;;10.38;2.17;;;;;;;29.05;nan;95720.09;4991831;28;20732;-84
2022/05/09 10:20:27;;;;;;;9.98;1.77;;;;;;;29.60;nan;95725.50;4985362;28;20033;-84
2022/05/09 10:26:03;;;;;;;9.32;2.10;;;;;;;29.58;nan;95719.66;4991287;28;20076;-83
2022/05/09 10:28:34;;;;;;;13.85;1.92;;;;;;;29.22;nan;95627.72;4986437;28;20088;-82
2022/05/09 10:31:24;;;;;;;3.05;1.90;;;;;;;29.62;nan;95690.41;5000159;28;20088;-81
2022/05/09 10:34:16;;;;;;;7.95;2.40;;;;;;;29.60;nan;95716.56;4974774;28;20044;-84
2022/05/09 10:36:49;;;;;;;9.93;2.17;;;;;;;28.61;nan;95501.75;4976800;28;20049;-83
2022/05/09 10:39:28;;;;;;;8.77;2.72;;;;;;;28.13;nan;95473.78;4984738;28;20550;-85
2022/05/09 10:42:00;;;;;;;12.52;2.03;;;;;;;27.99;nan;95531.69;4989347;28;20029;-83
2022/05/09 10:44:34;;;;;;;;;;;;;;;29.33;nan;95705.84;5005090;28;20044;-84
2022/05/09 10:47:17;;;;;;;9.40;2.00;;;;;;;29.80;nan;95698.69;5004489;28;19921;-84
2022/05/09 10:50:09;;;;;;;7.50;2.08;;;;;;;29.53;nan;95687.22;5002344;28;20033;-83
2022/05/09 10:52:55;;;;;;;;;;;;;;;30.02;nan;95699.56;5007623;28;20033;-83
2022/05/09 10:55:43;;;;;;;6.32;1.50;;;;;;;29.89;nan;95694.44;5007596;28;19931;-84
2022/05/09 10:58:19;;;;;;;6.53;1.92;;;;;;;27.90;nan;95405.84;4993428;28;20041;-84
2022/05/09 11:00:52;;;;;;;6.50;1.85;;;;;;;29.35;nan;95700.03;4988579;28;20120;-85
2022/05/09 11:03:35;;;;;;;7.18;2.15;;;;;;;30.03;nan;95698.41;4985695;28;20068;-85
2022/05/09 11:06:21;;;;;;;4.82;1.80;;;;;;;29.83;nan;95695.94;4991581;28;20043;-86
2022/05/09 11:09:02;;;;;;;5.07;1.88;;;;;;;29.48;nan;95693.06;5014155;28;20045;-85
2022/05/09 11:11:44;;;;;;;4.20;1.95;;;;;;;27.54;nan;95590.00;4993711;28;20041;-86
2022/05/09 11:14:34;;;;;;;7.03;3.35;;;;;;;28.97;nan;95682.19;4988848;28;20483;-85
2022/05/09 11:17:31;;;;;;;15.90;4.22;;;;;;;29.32;nan;95687.09;5010275;28;20113;-85
2022/05/09 11:20:23;;;;;;;5.15;2.22;;;;;;;29.50;nan;95630.63;5008234;28;20125;-86
2022/05/09 11:23:09;;;;;;;7.90;1.92;;;;;;;29.03;nan;95659.59;5013644;28;20206;-86
2022/05/09 11:26:16;;;;;;;8.63;2.28;;;;;;;29.91;nan;95681.13;5010076;28;20472;-85
2022/05/09 11:29:07;;;;;;;5.15;1.52;;;;;;;29.96;nan;95627.28;4914267;29;20041;-85
2022/05/09 11:31:51;;;;;;;4.45;1.80;;;;;;;30.18;nan;95675.41;5012045;28;20535;-84
2022/05/09 11:34:37;;;;;;;4.45;1.95;;;;;;;30.42;nan;95671.94;5005633;28;20075;-84
2022/05/09 11:37:34;;;;;;;7.80;1.67;;;;;;;30.10;nan;95669.13;5004336;28;20488;-84
2022/05/09 11:40:09;;;;;;;6.30;1.40;;;;;;;30.04;nan;95661.69;5009627;28;20093;-84
2022/05/09 11:45:58;;;;;;;6.10;1.70;;;;;;;30.37;nan;95669.56;5011546;28;20044;-84
2022/05/09 11:48:37;;;;;;;3.33;1.10;;;;;;;29.77;nan;95640.09;4989983;28;20061;-84
2022/05/09 11:51:44;;;;;;;5.60;1.50;;;;;;;30.38;nan;95659.41;5005934;28;20049;-85
2022/05/09 11:54:18;;;;;;;12.13;1.48;;;;;;;29.77;nan;95604.53;4985083;28;21660;-84
2022/05/09 11:56:48;;;;;;;8.30;1.40;;;;;;;29.34;nan;95548.94;4990794;28;20029;-84
2022/05/09 11:59:22;;;;;;;4.65;1.40;;;;;;;30.07;nan;95585.09;5004437;28;20041;-83
2022/05/09 12:02:08;;;;;;;4.00;1.50;;;;;;;30.65;nan;95657.91;5016875;28;20109;-83